Time;durP1;ratioP1;P1;durP2;ratioP2;P2;SDS_P1;SDS_P2;PMS_P1;PMS_P2;Temp;Humidity;BMP_temperature;BMP_pressure;BME280_temperature;BME280_humidity;BME280_pressure;Samples;Min_cycle;Max_cycle;Signal;HPM_P1;HPM_P2
2021/01/28 00:01:25;;;;;;;6.22;2.55;;;5.60;99.90;;;;;;4750223;30;20028;-73
2021/01/28 00:03:51;;;;;;;5.85;3.25;;;5.60;99.90;;;;;;4751693;30;20119;-79
2021/01/28 00:06:17;;;;;;;7.40;2.70;;;5.60;99.90;;;;;;4752298;30;20465;-77
2021/01/28 00:08:43;;;;;;;9.02;2.70;;;5.60;99.90;;;;;;4750122;30;20068;-81
2021/01/28 00:11:09;;;;;;;8.98;3.30;;;5.40;99.90;;;;;;4753934;30;20032;-75
2021/01/28 00:13:35;;;;;;;7.45;3.25;;;5.30;99.90;;;;;;4747425;30;20393;-75
2021/01/28 00:16:01;;;;;;;7.28;3.63;;;5.20;99.90;;;;;;4749039;30;20112;-75
2021/01/28 01:05:26;;;;;;;2.60;2.00;;;4.70;99.90;;;;;;4506101;24;20451;-77
2021/01/28 01:07:54;;;;;;;4.85;2.78;;;4.70;99.90;;;;;;4713214;30;20086;-77
2021/01/28 01:10:39;;;;;;;5.55;2.20;;;4.50;99.90;;;;;;4729200;30;20051;-78
2021/01/28 01:13:11;;;;;;;4.30;2.00;;;4.30;99.90;;;;;;4730673;30;20036;-78
2021/01/28 01:15:38;;;;;;;4.50;2.90;;;4.30;99.90;;;;;;4728492;30;20454;-77
2021/01/28 01:18:10;;;;;;;5.38;2.58;;;4.30;99.90;;;;;;4729792;30;20104;-77
2021/01/28 01:20:39;;;;;;;5.03;2.17;;;4.30;99.90;;;;;;4727402;30;20039;-77
2021/01/28 01:23:07;;;;;;;5.15;2.92;;;4.30;99.90;;;;;;4729640;30;20051;-77
2021/01/28 01:25:53;;;;;;;4.07;2.20;;;4.30;99.90;;;;;;4729592;30;20514;-77
2021/01/28 01:28:20;;;;;;;4.05;2.33;;;4.40;99.90;;;;;;4729528;30;20552;-77
2021/01/28 01:30:54;;;;;;;4.90;2.00;;;4.40;99.90;;;;;;4729010;30;20127;-76
2021/01/28 01:33:21;;;;;;;13.80;2.38;;;4.40;99.90;;;;;;4730825;30;20489;-77
2021/01/28 01:36:09;;;;;;;3.88;2.10;;;4.50;99.90;;;;;;4729731;30;20094;-78
2021/01/28 01:38:43;;;;;;;4.75;1.92;;;4.50;99.90;;;;;;4729450;30;20048;-77
2021/01/28 01:41:10;;;;;;;4.60;2.17;;;4.60;99.90;;;;;;4728980;30;20058;-77
2021/01/28 01:43:40;;;;;;;4.10;2.10;;;4.70;99.90;;;;;;4727948;30;20045;-77
2021/01/28 01:46:13;;;;;;;3.83;2.10;;;4.80;99.90;;;;;;4729134;30;20064;-75
2021/01/28 18:15:17;;;;;;;11.43;6.30;;;8.90;97.80;;;;;;4471346;24;20068;-83
2021/01/28 18:17:55;;;;;;;13.93;6.47;;;8.80;98.00;;;;;;4711117;30;20519;-83
2021/01/28 18:20:22;;;;;;;12.68;6.18;;;8.80;98.10;;;;;;4708063;30;20033;-84
2021/01/28 18:22:49;;;;;;;9.85;6.30;;;8.80;98.40;;;;;;4729031;30;20115;-83
2021/01/28 18:25:18;;;;;;;13.90;7.20;;;8.70;98.70;;;;;;4727454;30;20037;-84
2021/01/28 18:27:44;;;;;;;12.25;7.45;;;8.60;98.70;;;;;;4734442;30;20037;-85
2021/01/28 18:30:11;;;;;;;10.98;7.00;;;8.70;99.00;;;;;;4720292;30;20029;-83
2021/01/28 18:32:37;;;;;;;15.13;8.05;;;8.60;99.20;;;;;;4735871;30;20055;-84
2021/01/28 18:35:06;;;;;;;13.80;9.23;;;8.60;99.40;;;;;;4735725;30;20028;-84
2021/01/28 18:37:32;;;;;;;17.63;10.02;;;8.60;99.70;;;;;;4717684;30;20045;-81
2021/01/28 18:39:58;;;;;;;17.67;9.45;;;8.60;99.80;;;;;;4735202;30;20479;-83
2021/01/28 18:42:24;;;;;;;18.50;9.95;;;8.50;99.90;;;;;;4720634;30;20056;-83
2021/01/28 18:44:51;;;;;;;17.15;9.23;;;8.50;99.90;;;;;;4734260;30;20047;-81
2021/01/28 18:47:21;;;;;;;18.02;9.45;;;8.60;99.90;;;;;;4720625;30;20517;-82
2021/01/28 18:49:48;;;;;;;15.90;9.18;;;8.50;99.90;;;;;;4720078;30;20098;-81
2021/01/28 18:52:14;;;;;;;24.48;11.07;;;8.50;99.90;;;;;;4733283;30;20093;-81
2021/01/28 18:54:41;;;;;;;21.88;10.98;;;8.50;99.90;;;;;;4714946;30;20036;-83
2021/01/28 18:57:07;;;;;;;18.60;11.68;;;8.50;99.90;;;;;;4732945;30;20080;-82
2021/01/28 18:59:33;;;;;;;23.05;12.70;;;8.50;99.90;;;;;;4718097;30;20497;-84
2021/01/28 19:02:02;;;;;;;22.75;13.18;;;8.60;99.90;;;;;;4719930;30;20061;-83
2021/01/28 19:04:28;;;;;;;21.23;12.38;;;8.60;99.90;;;;;;4718829;30;20056;-80
2021/01/28 19:06:54;;;;;;;23.42;12.25;;;8.60;99.90;;;;;;4734468;30;20032;-89
2021/01/28 19:09:21;;;;;;;18.75;11.32;;;8.60;99.90;;;;;;4721183;30;20044;-88
2021/01/28 19:11:47;;;;;;;20.42;11.82;;;8.60;99.90;;;;;;4735007;30;20036;-86
2021/01/28 19:14:13;;;;;;;17.73;10.13;;;8.70;99.90;;;;;;4735100;30;20036;-86
2021/01/28 19:16:39;;;;;;;17.67;9.48;;;8.70;99.90;;;;;;4735687;30;20055;-84
2021/01/28 19:19:05;;;;;;;19.08;9.73;;;8.60;99.90;;;;;;4735297;30;20048;-89
2021/01/28 19:21:31;;;;;;;18.15;9.43;;;8.60;99.90;;;;;;4721485;30;20036;-87
2021/01/28 19:23:57;;;;;;;16.92;10.00;;;8.60;99.90;;;;;;4735929;30;20101;-87
2021/01/28 19:26:24;;;;;;;18.65;10.00;;;8.70;99.90;;;;;;4736007;30;20035;-87
2021/01/28 19:28:51;;;;;;;21.00;10.05;;;8.70;99.90;;;;;;4718326;30;20033;-87
2021/01/28 19:31:18;;;;;;;14.65;9.18;;;8.70;99.90;;;;;;4736800;30;20111;-87
2021/01/28 19:33:46;;;;;;;13.80;9.20;;;8.70;99.90;;;;;;4736220;30;20091;-86
2021/01/28 19:36:12;;;;;;;19.15;9.77;;;8.70;99.80;;;;;;4737083;30;20048;-85
2021/01/28 19:38:39;;;;;;;16.88;9.38;;;8.70;99.80;;;;;;4732742;30;20044;-84
2021/01/28 19:41:08;;;;;;;22.77;8.60;;;8.70;99.80;;;;;;4721340;30;20089;-86
2021/01/28 19:43:35;;;;;;;15.40;8.68;;;8.70;99.60;;;;;;4729939;30;20041;-85
2021/01/28 19:46:02;;;;;;;12.65;7.78;;;8.70;99.50;;;;;;4733106;30;20478;-86
2021/01/28 19:48:28;;;;;;;11.02;6.50;;;8.70;99.30;;;;;;4733727;30;20041;-86
2021/01/28 19:50:55;;;;;;;17.98;8.45;;;8.70;98.90;;;;;;4718612;30;20032;-87
2021/01/28 19:53:22;;;;;;;12.82;7.90;;;8.60;98.90;;;;;;4733663;30;20037;-88
2021/01/28 19:55:50;;;;;;;14.32;7.80;;;8.50;98.70;;;;;;4718505;30;20642;-88
2021/01/28 19:58:17;;;;;;;11.48;6.18;;;8.50;98.60;;;;;;4732703;30;20119;-87
2021/01/28 20:00:43;;;;;;;10.27;6.00;;;8.50;98.50;;;;;;4732395;30;20064;-86
2021/01/28 20:03:11;;;;;;;7.85;5.82;;;8.50;98.50;;;;;;4732426;30;20494;-87
2021/01/28 20:05:38;;;;;;;12.05;6.55;;;8.50;98.40;;;;;;4734292;30;20091;-86
2021/01/28 20:08:05;;;;;;;13.65;7.28;;;8.60;98.40;;;;;;4733290;30;20029;-86
2021/01/28 20:10:33;;;;;;;9.57;5.50;;;8.60;98.40;;;;;;4732766;30;20044;-83
2021/01/28 20:13:01;;;;;;;13.70;7.50;;;8.60;98.40;;;;;;4732594;30;20041;-86
2021/01/28 20:15:29;;;;;;;17.52;8.55;;;8.60;98.30;;;;;;4730700;30;20128;-86
2021/01/28 20:17:55;;;;;;;9.88;5.22;;;8.60;98.20;;;;;;4731585;30;20505;-84
2021/01/28 20:20:22;;;;;;;11.50;5.63;;;8.60;98.30;;;;;;4733502;30;20445;-84
2021/01/28 20:22:49;;;;;;;9.52;5.32;;;8.60;98.20;;;;;;4730038;30;20032;-84
2021/01/28 20:25:19;;;;;;;8.50;5.70;;;8.60;98.10;;;;;;4730902;30;20036;-83
2021/01/28 20:27:45;;;;;;;8.00;4.80;;;8.50;98.10;;;;;;4730928;30;20037;-84
2021/01/28 20:30:14;;;;;;;11.18;5.18;;;8.50;97.80;;;;;;4730639;30;20461;-84
2021/01/28 20:32:40;;;;;;;9.32;4.68;;;8.50;97.80;;;;;;4731070;30;20029;-83
2021/01/28 20:35:08;;;;;;;6.57;4.38;;;8.50;97.90;;;;;;4708794;30;20040;-83
2021/01/28 20:37:34;;;;;;;8.77;4.85;;;8.50;97.90;;;;;;4716000;30;20049;-84
2021/01/28 20:40:00;;;;;;;8.60;5.65;;;8.50;98.00;;;;;;4711321;30;20040;-84
2021/01/28 20:42:26;;;;;;;9.73;5.53;;;8.50;97.90;;;;;;4736153;30;20056;-83
2021/01/28 20:44:52;;;;;;;10.50;6.00;;;8.50;97.90;;;;;;4732163;30;20032;-84
2021/01/28 20:47:23;;;;;;;12.25;6.70;;;8.50;98.00;;;;;;4731930;30;20044;-83
2021/01/28 20:49:49;;;;;;;15.63;6.55;;;8.50;97.90;;;;;;4730093;30;21087;-83
2021/01/28 20:52:15;;;;;;;10.38;7.28;;;8.50;98.00;;;;;;4731823;30;20036;-84
2021/01/28 20:54:41;;;;;;;11.73;6.68;;;8.50;97.90;;;;;;4716497;30;20025;-85
2021/01/28 20:57:08;;;;;;;11.45;7.45;;;8.50;97.80;;;;;;4715969;30;20047;-85
2021/01/28 20:59:34;;;;;;;16.13;8.45;;;8.50;97.80;;;;;;4731249;30;20047;-86
2021/01/28 21:02:00;;;;;;;15.95;9.88;;;8.50;97.90;;;;;;4731028;30;20991;-84
2021/01/28 21:04:26;;;;;;;18.90;10.40;;;8.60;98.10;;;;;;4730854;30;20385;-85
2021/01/28 21:06:52;;;;;;;14.95;9.98;;;8.60;98.30;;;;;;4716821;30;20033;-83
2021/01/28 21:09:18;;;;;;;18.63;11.05;;;8.60;98.40;;;;;;4727859;30;20448;-82
2021/01/28 21:11:45;;;;;;;18.77;11.95;;;8.60;98.40;;;;;;4730279;30;20029;-82
2021/01/28 21:14:12;;;;;;;16.52;10.38;;;8.60;98.30;;;;;;4730087;30;20032;-83
2021/01/28 21:16:38;;;;;;;21.33;9.45;;;8.60;98.40;;;;;;4730816;30;20064;-82
2021/01/28 21:19:04;;;;;;;13.90;8.55;;;8.60;98.40;;;;;;4727621;30;20090;-84
2021/01/28 21:21:31;;;;;;;15.15;8.00;;;8.60;98.50;;;;;;4730459;30;20103;-85
2021/01/28 21:23:59;;;;;;;13.15;8.13;;;8.60;98.30;;;;;;4730558;30;20842;-85
2021/01/28 21:26:25;;;;;;;14.35;8.10;;;8.60;98.20;;;;;;4715886;30;20380;-86
2021/01/28 21:28:51;;;;;;;20.55;9.05;;;8.70;98.00;;;;;;4729056;30;20127;-83
2021/01/28 21:31:17;;;;;;;13.65;8.77;;;8.70;98.00;;;;;;4714296;30;20132;-84
2021/01/28 21:33:46;;;;;;;17.45;8.75;;;8.70;97.80;;;;;;4728952;30;20123;-84
2021/01/28 21:36:13;;;;;;;17.95;8.10;;;8.70;97.80;;;;;;4728752;30;20033;-84
2021/01/28 21:38:40;;;;;;;14.15;8.15;;;8.60;97.70;;;;;;4727593;30;20602;-78
2021/01/28 21:41:18;;;;;;;12.68;7.95;;;8.60;97.80;;;;;;4726095;30;20044;-84
2021/01/28 21:43:47;;;;;;;13.65;7.53;;;8.60;97.60;;;;;;4710745;30;20049;-82
2021/01/28 21:46:15;;;;;;;13.30;8.13;;;8.50;97.70;;;;;;4729219;30;20033;-84
2021/01/28 21:48:41;;;;;;;16.10;8.05;;;8.50;97.80;;;;;;4726307;30;20052;-85
2021/01/28 21:51:08;;;;;;;12.50;7.50;;;8.50;98.00;;;;;;4711972;30;20043;-84
2021/01/28 21:53:34;;;;;;;10.93;7.53;;;8.50;98.00;;;;;;4714385;30;20075;-82
2021/01/28 21:56:00;;;;;;;11.45;7.00;;;8.40;98.20;;;;;;4727711;30;20052;-81
2021/01/28 21:58:26;;;;;;;11.10;6.95;;;8.50;98.20;;;;;;4728942;30;20345;-83
2021/01/28 22:00:53;;;;;;;11.43;7.50;;;8.50;98.40;;;;;;4730155;30;20370;-82
2021/01/28 22:03:20;;;;;;;12.55;7.25;;;8.50;98.40;;;;;;4728258;30;20037;-81
2021/01/28 22:05:47;;;;;;;11.60;6.53;;;8.50;98.60;;;;;;4713904;30;20032;-82
2021/01/28 22:08:13;;;;;;;10.68;6.65;;;8.50;98.70;;;;;;4729112;30;20083;-82
2021/01/28 22:10:39;;;;;;;11.65;6.78;;;8.50;98.80;;;;;;4729203;30;20127;-82
2021/01/28 22:13:05;;;;;;;13.80;6.18;;;8.50;98.80;;;;;;4729920;30;20062;-81
2021/01/28 22:15:32;;;;;;;10.20;6.10;;;8.60;99.00;;;;;;4726085;30;20036;-81
2021/01/28 22:17:58;;;;;;;9.13;5.28;;;8.50;99.10;;;;;;4728812;30;20060;-82
2021/01/28 22:20:25;;;;;;;10.15;5.35;;;8.50;99.30;;;;;;4729639;30;20119;-81
2021/01/28 22:22:52;;;;;;;7.68;5.35;;;8.50;99.50;;;;;;4733559;30;20044;-82
2021/01/28 22:25:33;;;;;;;9.90;5.43;;;8.60;99.80;;;;;;4733013;30;20047;-82
2021/01/28 22:28:00;;;;;;;7.18;4.70;;;8.70;99.90;;;;;;4732764;30;20044;-81
2021/01/28 22:30:27;;;;;;;6.68;4.05;;;8.70;99.90;;;;;;4733874;30;20047;-81
2021/01/28 22:32:54;;;;;;;11.30;5.00;;;8.70;99.90;;;;;;4730067;30;20040;-80
2021/01/28 22:35:27;;;;;;;8.77;4.68;;;8.70;99.90;;;;;;4729463;30;20456;-81
2021/01/28 22:37:55;;;;;;;5.18;4.00;;;8.80;99.90;;;;;;4718495;30;20056;-81
2021/01/28 22:40:23;;;;;;;5.18;3.53;;;8.80;99.90;;;;;;4732770;30;20047;-81
2021/01/28 22:42:50;;;;;;;4.05;3.13;;;8.90;99.90;;;;;;4735219;30;20401;-82
2021/01/28 22:45:17;;;;;;;8.48;3.95;;;8.90;99.90;;;;;;4736829;30;20101;-81
2021/01/28 22:47:46;;;;;;;8.02;3.38;;;9.00;99.90;;;;;;4732681;30;20060;-82
2021/01/28 22:50:14;;;;;;;7.32;3.50;;;9.00;99.90;;;;;;4732194;30;20040;-82
2021/01/28 22:52:41;;;;;;;6.40;3.33;;;9.10;99.90;;;;;;4735527;30;20027;-82
2021/01/28 22:55:09;;;;;;;6.53;2.97;;;9.10;99.90;;;;;;4733739;30;20122;-82
2021/01/28 22:57:35;;;;;;;8.57;2.92;;;9.10;99.90;;;;;;4736278;30;20033;-80
2021/01/28 23:00:03;;;;;;;4.97;2.85;;;9.20;99.90;;;;;;4735124;30;20040;-81
2021/01/28 23:02:29;;;;;;;5.47;2.80;;;9.20;99.90;;;;;;4738356;30;20037;-81
2021/01/28 23:04:55;;;;;;;3.72;2.15;;;9.20;99.90;;;;;;4732066;30;20039;-82
2021/01/28 23:07:21;;;;;;;3.63;2.67;;;9.20;99.90;;;;;;4733117;30;20398;-83
2021/01/28 23:09:47;;;;;;;5.65;2.80;;;9.20;99.90;;;;;;4734037;30;20036;-81
2021/01/28 23:12:14;;;;;;;5.00;3.15;;;9.30;99.90;;;;;;4732116;30;20039;-81
2021/01/28 23:14:40;;;;;;;6.53;2.90;;;9.30;99.90;;;;;;4718527;30;20040;-81
2021/01/28 23:17:06;;;;;;;5.80;3.00;;;9.30;99.90;;;;;;4718741;30;20147;-81
2021/01/28 23:19:32;;;;;;;5.38;2.63;;;9.30;99.90;;;;;;4738219;30;20531;-80
2021/01/28 23:21:59;;;;;;;4.18;3.00;;;9.30;99.90;;;;;;4728105;30;20032;-80
2021/01/28 23:24:25;;;;;;;6.75;2.92;;;9.30;99.90;;;;;;4736087;30;20047;-80
